sensor_id;sensor_type;location;lat;lon;timestamp;P1;durP1;ratioP1;P2;durP2;ratioP2
59856;SDS011;45733;52.668;6.860;2023-06-22T00:01:58;1.20;;;1.20;;
59856;SDS011;45733;52.668;6.860;2023-06-22T00:04:24;1.20;;;1.20;;
59856;SDS011;45733;52.668;6.860;2023-06-22T00:06:50;1.30;;;1.30;;
59856;SDS011;45733;52.668;6.860;2023-06-22T00:09:16;1.20;;;1.20;;
59856;SDS011;45733;52.668;6.860;2023-06-22T00:11:41;1.20;;;1.20;;
59856;SDS011;45733;52.668;6.860;2023-06-22T00:14:07;1.30;;;1.30;;
59856;SDS011;45733;52.668;6.860;2023-06-22T00:16:32;1.30;;;1.30;;
59856;SDS011;45733;52.668;6.860;2023-06-22T00:18:59;1.20;;;1.20;;
59856;SDS011;45733;52.668;6.860;2023-06-22T00:21:29;1.30;;;1.30;;
59856;SDS011;45733;52.668;6.860;2023-06-22T00:23:55;1.55;;;1.45;;
59856;SDS011;45733;52.668;6.860;2023-06-22T00:26:22;1.30;;;1.30;;
59856;SDS011;45733;52.668;6.860;2023-06-22T00:28:48;1.30;;;1.30;;
59856;SDS011;45733;52.668;6.860;2023-06-22T00:31:14;1.38;;;1.30;;
59856;SDS011;45733;52.668;6.860;2023-06-22T00:33:39;1.38;;;1.38;;
59856;SDS011;45733;52.668;6.860;2023-06-22T00:36:06;1.50;;;1.40;;
59856;SDS011;45733;52.668;6.860;2023-06-22T00:38:38;1.50;;;1.40;;
59856;SDS011;45733;52.668;6.860;2023-06-22T00:41:05;1.58;;;1.48;;
59856;SDS011;45733;52.668;6.860;2023-06-22T00:43:31;1.50;;;1.40;;
59856;SDS011;45733;52.668;6.860;2023-06-22T00:45:56;1.60;;;1.50;;
59856;SDS011;45733;52.668;6.860;2023-06-22T00:48:22;1.60;;;1.50;;
59856;SDS011;45733;52.668;6.860;2023-06-22T00:50:48;1.70;;;1.60;;
59856;SDS011;45733;52.668;6.860;2023-06-22T00:53:15;1.67;;;1.58;;
59856;SDS011;45733;52.668;6.860;2023-06-22T00:55:43;1.88;;;1.77;;
59856;SDS011;45733;52.668;6.860;2023-06-22T00:58:10;1.70;;;1.60;;
59856;SDS011;45733;52.668;6.860;2023-06-22T01:00:37;1.63;;;1.52;;
59856;SDS011;45733;52.668;6.860;2023-06-22T01:03:03;1.70;;;1.60;;
59856;SDS011;45733;52.668;6.860;2023-06-22T01:05:34;2.00;;;1.90;;
59856;SDS011;45733;52.668;6.860;2023-06-22T01:10:45;2.00;;;1.90;;
59856;SDS011;45733;52.668;6.860;2023-06-22T01:13:41;2.00;;;1.90;;
59856;SDS011;45733;52.668;6.860;2023-06-22T01:16:29;2.05;;;1.95;;
59856;SDS011;45733;52.668;6.860;2023-06-22T01:18:57;1.95;;;1.85;;
59856;SDS011;45733;52.668;6.860;2023-06-22T01:21:28;2.00;;;1.90;;
59856;SDS011;45733;52.668;6.860;2023-06-22T01:27:09;2.20;;;2.10;;
59856;SDS011;45733;52.668;6.860;2023-06-22T01:29:55;2.20;;;2.10;;
59856;SDS011;45733;52.668;6.860;2023-06-22T01:32:29;2.22;;;2.13;;
59856;SDS011;45733;52.668;6.860;2023-06-22T01:34:58;2.22;;;2.13;;
59856;SDS011;45733;52.668;6.860;2023-06-22T01:37:26;2.15;;;2.05;;
59856;SDS011;45733;52.668;6.860;2023-06-22T01:39:53;2.08;;;1.98;;
59856;SDS011;45733;52.668;6.860;2023-06-22T01:42:20;2.03;;;1.92;;
59856;SDS011;45733;52.668;6.860;2023-06-22T01:44:48;2.33;;;2.22;;
59856;SDS011;45733;52.668;6.860;2023-06-22T01:47:15;2.25;;;2.15;;
59856;SDS011;45733;52.668;6.860;2023-06-22T01:49:42;2.22;;;2.13;;
59856;SDS011;45733;52.668;6.860;2023-06-22T01:52:08;2.35;;;2.25;;
59856;SDS011;45733;52.668;6.860;2023-06-22T01:54:34;2.28;;;2.17;;
59856;SDS011;45733;52.668;6.860;2023-06-22T01:57:02;2.60;;;2.40;;
59856;SDS011;45733;52.668;6.860;2023-06-22T01:59:48;2.13;;;2.03;;
59856;SDS011;45733;52.668;6.860;2023-06-22T02:02:16;2.50;;;2.40;;
59856;SDS011;45733;52.668;6.860;2023-06-22T02:04:51;2.45;;;2.35;;
59856;SDS011;45733;52.668;6.860;2023-06-22T02:07:49;2.50;;;2.40;;
59856;SDS011;45733;52.668;6.860;2023-06-22T02:10:21;2.50;;;2.40;;
59856;SDS011;45733;52.668;6.860;2023-06-22T02:12:49;2.50;;;2.40;;
59856;SDS011;45733;52.668;6.860;2023-06-22T02:15:16;2.50;;;2.40;;
59856;SDS011;45733;52.668;6.860;2023-06-22T02:17:42;2.35;;;2.25;;
59856;SDS011;45733;52.668;6.860;2023-06-22T02:20:12;2.58;;;2.47;;
59856;SDS011;45733;52.668;6.860;2023-06-22T02:22:38;2.58;;;2.47;;
59856;SDS011;45733;52.668;6.860;2023-06-22T02:25:04;2.40;;;2.30;;
59856;SDS011;45733;52.668;6.860;2023-06-22T02:27:29;2.47;;;2.38;;
59856;SDS011;45733;52.668;6.860;2023-06-22T02:29:55;2.40;;;2.30;;
59856;SDS011;45733;52.668;6.860;2023-06-22T02:32:21;2.47;;;2.38;;
59856;SDS011;45733;52.668;6.860;2023-06-22T02:34:47;2.38;;;2.28;;
59856;SDS011;45733;52.668;6.860;2023-06-22T02:37:13;2.20;;;2.10;;
59856;SDS011;45733;52.668;6.860;2023-06-22T02:39:42;2.30;;;2.20;;
59856;SDS011;45733;52.668;6.860;2023-06-22T02:42:08;2.08;;;1.98;;
59856;SDS011;45733;52.668;6.860;2023-06-22T02:44:35;2.00;;;1.90;;
59856;SDS011;45733;52.668;6.860;2023-06-22T02:47:01;2.00;;;1.90;;
59856;SDS011;45733;52.668;6.860;2023-06-22T02:49:27;1.90;;;1.80;;
59856;SDS011;45733;52.668;6.860;2023-06-22T02:51:53;1.90;;;1.80;;
59856;SDS011;45733;52.668;6.860;2023-06-22T02:54:20;1.80;;;1.70;;
59856;SDS011;45733;52.668;6.860;2023-06-22T02:56:45;1.70;;;1.60;;
59856;SDS011;45733;52.668;6.860;2023-06-22T02:59:11;1.73;;;1.63;;
59856;SDS011;45733;52.668;6.860;2023-06-22T03:01:37;1.80;;;1.70;;
59856;SDS011;45733;52.668;6.860;2023-06-22T03:04:05;1.80;;;1.70;;
59856;SDS011;45733;52.668;6.860;2023-06-22T03:06:32;1.70;;;1.60;;
59856;SDS011;45733;52.668;6.860;2023-06-22T03:09:02;1.70;;;1.60;;
59856;SDS011;45733;52.668;6.860;2023-06-22T03:11:30;1.70;;;1.60;;
59856;SDS011;45733;52.668;6.860;2023-06-22T03:13:56;1.67;;;1.58;;
59856;SDS011;45733;52.668;6.860;2023-06-22T03:16:22;1.67;;;1.58;;
59856;SDS011;45733;52.668;6.860;2023-06-22T03:18:48;1.60;;;1.50;;
59856;SDS011;45733;52.668;6.860;2023-06-22T03:21:13;1.60;;;1.50;;
59856;SDS011;45733;52.668;6.860;2023-06-22T03:23:40;1.60;;;1.50;;
59856;SDS011;45733;52.668;6.860;2023-06-22T03:26:08;1.60;;;1.50;;
59856;SDS011;45733;52.668;6.860;2023-06-22T03:28:34;1.70;;;1.60;;
59856;SDS011;45733;52.668;6.860;2023-06-22T03:31:00;1.67;;;1.58;;
59856;SDS011;45733;52.668;6.860;2023-06-22T03:33:25;1.60;;;1.50;;
59856;SDS011;45733;52.668;6.860;2023-06-22T03:35:51;1.67;;;1.58;;
59856;SDS011;45733;52.668;6.860;2023-06-22T03:38:17;1.75;;;1.65;;
59856;SDS011;45733;52.668;6.860;2023-06-22T03:40:42;1.90;;;1.80;;
59856;SDS011;45733;52.668;6.860;2023-06-22T03:43:08;1.77;;;1.67;;
59856;SDS011;45733;52.668;6.860;2023-06-22T03:45:34;1.88;;;1.77;;
59856;SDS011;45733;52.668;6.860;2023-06-22T03:48:00;1.83;;;1.73;;
59856;SDS011;45733;52.668;6.860;2023-06-22T03:50:26;1.80;;;1.70;;
59856;SDS011;45733;52.668;6.860;2023-06-22T03:52:52;1.67;;;1.58;;
59856;SDS011;45733;52.668;6.860;2023-06-22T03:55:19;1.67;;;1.58;;
59856;SDS011;45733;52.668;6.860;2023-06-22T03:57:45;1.65;;;1.55;;
59856;SDS011;45733;52.668;6.860;2023-06-22T04:00:11;1.65;;;1.55;;
59856;SDS011;45733;52.668;6.860;2023-06-22T04:02:38;1.65;;;1.55;;
59856;SDS011;45733;52.668;6.860;2023-06-22T04:05:03;1.58;;;1.48;;
59856;SDS011;45733;52.668;6.860;2023-06-22T04:07:30;1.52;;;1.42;;
59856;SDS011;45733;52.668;6.860;2023-06-22T04:09:55;1.65;;;1.55;;
59856;SDS011;45733;52.668;6.860;2023-06-22T04:12:21;1.63;;;1.52;;
59856;SDS011;45733;52.668;6.860;2023-06-22T04:14:47;1.77;;;1.67;;
59856;SDS011;45733;52.668;6.860;2023-06-22T04:17:12;1.73;;;1.63;;
59856;SDS011;45733;52.668;6.860;2023-06-22T04:19:39;1.77;;;1.67;;
59856;SDS011;45733;52.668;6.860;2023-06-22T04:22:05;1.70;;;1.60;;
59856;SDS011;45733;52.668;6.860;2023-06-22T04:24:32;1.83;;;1.73;;
59856;SDS011;45733;52.668;6.860;2023-06-22T04:26:58;1.70;;;1.60;;
59856;SDS011;45733;52.668;6.860;2023-06-22T04:29:25;1.67;;;1.58;;
59856;SDS011;45733;52.668;6.860;2023-06-22T04:31:54;1.65;;;1.55;;
59856;SDS011;45733;52.668;6.860;2023-06-22T04:34:21;1.65;;;1.55;;
59856;SDS011;45733;52.668;6.860;2023-06-22T04:36:46;1.65;;;1.55;;
59856;SDS011;45733;52.668;6.860;2023-06-22T04:39:12;1.80;;;1.70;;
59856;SDS011;45733;52.668;6.860;2023-06-22T04:41:38;1.73;;;1.63;;
59856;SDS011;45733;52.668;6.860;2023-06-22T04:44:17;1.75;;;1.65;;
59856;SDS011;45733;52.668;6.860;2023-06-22T04:46:52;1.92;;;1.83;;
59856;SDS011;45733;52.668;6.860;2023-06-22T04:49:19;1.75;;;1.65;;
59856;SDS011;45733;52.668;6.860;2023-06-22T04:51:46;1.80;;;1.70;;
59856;SDS011;45733;52.668;6.860;2023-06-22T04:54:12;1.70;;;1.60;;
59856;SDS011;45733;52.668;6.860;2023-06-22T04:56:37;1.58;;;1.48;;
59856;SDS011;45733;52.668;6.860;2023-06-22T04:59:06;1.30;;;1.30;;
59856;SDS011;45733;52.668;6.860;2023-06-22T05:01:32;1.13;;;1.13;;
59856;SDS011;45733;52.668;6.860;2023-06-22T05:04:00;1.75;;;1.65;;
59856;SDS011;45733;52.668;6.860;2023-06-22T05:06:26;2.13;;;2.03;;
59856;SDS011;45733;52.668;6.860;2023-06-22T05:08:56;2.15;;;2.05;;
59856;SDS011;45733;52.668;6.860;2023-06-22T05:11:28;2.45;;;2.35;;
59856;SDS011;45733;52.668;6.860;2023-06-22T05:13:54;2.10;;;2.00;;
59856;SDS011;45733;52.668;6.860;2023-06-22T05:16:21;2.13;;;2.03;;
59856;SDS011;45733;52.668;6.860;2023-06-22T05:18:49;3.45;;;2.30;;
59856;SDS011;45733;52.668;6.860;2023-06-22T05:21:17;2.10;;;2.00;;
59856;SDS011;45733;52.668;6.860;2023-06-22T05:23:42;2.13;;;2.03;;
59856;SDS011;45733;52.668;6.860;2023-06-22T05:26:08;2.10;;;2.00;;
59856;SDS011;45733;52.668;6.860;2023-06-22T05:28:35;1.83;;;1.73;;
59856;SDS011;45733;52.668;6.860;2023-06-22T05:31:00;2.00;;;1.90;;
59856;SDS011;45733;52.668;6.860;2023-06-22T05:33:26;1.77;;;1.67;;
59856;SDS011;45733;52.668;6.860;2023-06-22T05:35:52;1.30;;;1.20;;
59856;SDS011;45733;52.668;6.860;2023-06-22T05:38:17;1.70;;;1.60;;
59856;SDS011;45733;52.668;6.860;2023-06-22T05:40:43;2.05;;;1.95;;
59856;SDS011;45733;52.668;6.860;2023-06-22T05:43:09;2.03;;;1.92;;
59856;SDS011;45733;52.668;6.860;2023-06-22T05:45:34;1.70;;;1.60;;
59856;SDS011;45733;52.668;6.860;2023-06-22T05:48:00;1.30;;;1.30;;
59856;SDS011;45733;52.668;6.860;2023-06-22T05:50:26;1.30;;;1.30;;
59856;SDS011;45733;52.668;6.860;2023-06-22T05:52:52;1.38;;;1.35;;
59856;SDS011;45733;52.668;6.860;2023-06-22T05:55:17;1.80;;;1.70;;
59856;SDS011;45733;52.668;6.860;2023-06-22T05:57:44;1.58;;;1.48;;
59856;SDS011;45733;52.668;6.860;2023-06-22T06:00:10;1.00;;;1.00;;
59856;SDS011;45733;52.668;6.860;2023-06-22T06:02:37;0.90;;;0.90;;
59856;SDS011;45733;52.668;6.860;2023-06-22T06:05:08;0.90;;;0.90;;
59856;SDS011;45733;52.668;6.860;2023-06-22T06:07:39;0.90;;;0.90;;
59856;SDS011;45733;52.668;6.860;2023-06-22T06:10:05;0.90;;;0.90;;
59856;SDS011;45733;52.668;6.860;2023-06-22T06:12:32;0.98;;;0.98;;
59856;SDS011;45733;52.668;6.860;2023-06-22T06:14:57;0.90;;;0.90;;
59856;SDS011;45733;52.668;6.860;2023-06-22T06:17:23;0.90;;;0.90;;
59856;SDS011;45733;52.668;6.860;2023-06-22T06:19:49;0.80;;;0.80;;
59856;SDS011;45733;52.668;6.860;2023-06-22T06:22:14;1.00;;;1.00;;
59856;SDS011;45733;52.668;6.860;2023-06-22T06:24:40;0.90;;;0.90;;
59856;SDS011;45733;52.668;6.860;2023-06-22T06:27:06;1.00;;;1.00;;
59856;SDS011;45733;52.668;6.860;2023-06-22T06:29:31;1.00;;;1.00;;
59856;SDS011;45733;52.668;6.860;2023-06-22T06:31:57;0.73;;;0.73;;
59856;SDS011;45733;52.668;6.860;2023-06-22T06:34:23;0.77;;;0.77;;
59856;SDS011;45733;52.668;6.860;2023-06-22T06:36:49;0.55;;;0.55;;
59856;SDS011;45733;52.668;6.860;2023-06-22T06:39:14;0.80;;;0.80;;
59856;SDS011;45733;52.668;6.860;2023-06-22T06:41:41;0.75;;;0.75;;
59856;SDS011;45733;52.668;6.860;2023-06-22T06:44:06;0.70;;;0.70;;
59856;SDS011;45733;52.668;6.860;2023-06-22T06:46:32;0.50;;;0.50;;
59856;SDS011;45733;52.668;6.860;2023-06-22T06:48:58;1.00;;;1.00;;
59856;SDS011;45733;52.668;6.860;2023-06-22T06:51:23;0.60;;;0.60;;
59856;SDS011;45733;52.668;6.860;2023-06-22T06:53:49;1.00;;;1.00;;
59856;SDS011;45733;52.668;6.860;2023-06-22T06:56:15;0.93;;;0.93;;
59856;SDS011;45733;52.668;6.860;2023-06-22T06:58:41;0.90;;;0.90;;
59856;SDS011;45733;52.668;6.860;2023-06-22T07:01:07;0.98;;;0.98;;
59856;SDS011;45733;52.668;6.860;2023-06-22T07:03:34;1.00;;;1.00;;
59856;SDS011;45733;52.668;6.860;2023-06-22T07:05:59;0.70;;;0.70;;
59856;SDS011;45733;52.668;6.860;2023-06-22T07:08:25;0.93;;;0.93;;
59856;SDS011;45733;52.668;6.860;2023-06-22T07:10:54;0.70;;;0.70;;
59856;SDS011;45733;52.668;6.860;2023-06-22T07:13:20;1.25;;;0.80;;
59856;SDS011;45733;52.668;6.860;2023-06-22T07:15:45;0.75;;;0.75;;
59856;SDS011;45733;52.668;6.860;2023-06-22T07:18:11;0.70;;;0.70;;
59856;SDS011;45733;52.668;6.860;2023-06-22T07:20:37;0.70;;;0.70;;
59856;SDS011;45733;52.668;6.860;2023-06-22T07:23:04;0.90;;;0.90;;
59856;SDS011;45733;52.668;6.860;2023-06-22T07:25:31;0.80;;;0.80;;
59856;SDS011;45733;52.668;6.860;2023-06-22T07:30:22;1.00;;;1.00;;
59856;SDS011;45733;52.668;6.860;2023-06-22T07:32:48;0.77;;;0.77;;
59856;SDS011;45733;52.668;6.860;2023-06-22T07:35:14;0.30;;;0.30;;
59856;SDS011;45733;52.668;6.860;2023-06-22T07:37:41;0.63;;;0.63;;
59856;SDS011;45733;52.668;6.860;2023-06-22T07:40:07;0.70;;;0.70;;
59856;SDS011;45733;52.668;6.860;2023-06-22T07:42:34;0.60;;;0.60;;
59856;SDS011;45733;52.668;6.860;2023-06-22T07:45:00;0.30;;;0.30;;
59856;SDS011;45733;52.668;6.860;2023-06-22T07:47:29;0.77;;;0.77;;
59856;SDS011;45733;52.668;6.860;2023-06-22T07:49:55;0.75;;;0.75;;
59856;SDS011;45733;52.668;6.860;2023-06-22T07:52:23;0.40;;;0.40;;
59856;SDS011;45733;52.668;6.860;2023-06-22T07:54:50;0.32;;;0.32;;
59856;SDS011;45733;52.668;6.860;2023-06-22T07:57:16;0.77;;;0.77;;
59856;SDS011;45733;52.668;6.860;2023-06-22T07:59:41;0.45;;;0.45;;
59856;SDS011;45733;52.668;6.860;2023-06-22T08:02:07;0.73;;;0.73;;
59856;SDS011;45733;52.668;6.860;2023-06-22T08:04:34;0.30;;;0.30;;
59856;SDS011;45733;52.668;6.860;2023-06-22T08:07:00;0.43;;;0.43;;
59856;SDS011;45733;52.668;6.860;2023-06-22T08:09:30;0.85;;;0.85;;
59856;SDS011;45733;52.668;6.860;2023-06-22T08:11:57;0.32;;;0.32;;
59856;SDS011;45733;52.668;6.860;2023-06-22T08:14:23;0.30;;;0.30;;
59856;SDS011;45733;52.668;6.860;2023-06-22T08:16:50;0.20;;;0.20;;
59856;SDS011;45733;52.668;6.860;2023-06-22T08:19:16;0.30;;;0.30;;
59856;SDS011;45733;52.668;6.860;2023-06-22T08:21:42;0.30;;;0.30;;
59856;SDS011;45733;52.668;6.860;2023-06-22T08:24:08;0.40;;;0.40;;
59856;SDS011;45733;52.668;6.860;2023-06-22T08:26:33;0.30;;;0.30;;
59856;SDS011;45733;52.668;6.860;2023-06-22T08:29:04;0.50;;;0.50;;
59856;SDS011;45733;52.668;6.860;2023-06-22T08:31:30;0.30;;;0.30;;
59856;SDS011;45733;52.668;6.860;2023-06-22T08:33:58;0.30;;;0.30;;
59856;SDS011;45733;52.668;6.860;2023-06-22T08:36:24;0.30;;;0.30;;
59856;SDS011;45733;52.668;6.860;2023-06-22T08:38:50;0.30;;;0.30;;
59856;SDS011;45733;52.668;6.860;2023-06-22T08:41:19;0.30;;;0.30;;
59856;SDS011;45733;52.668;6.860;2023-06-22T08:43:45;0.30;;;0.30;;
59856;SDS011;45733;52.668;6.860;2023-06-22T08:46:10;0.28;;;0.28;;
59856;SDS011;45733;52.668;6.860;2023-06-22T08:48:36;0.40;;;0.40;;
59856;SDS011;45733;52.668;6.860;2023-06-22T08:51:02;0.38;;;0.38;;
59856;SDS011;45733;52.668;6.860;2023-06-22T08:53:28;0.30;;;0.30;;
59856;SDS011;45733;52.668;6.860;2023-06-22T08:55:54;0.40;;;0.40;;
59856;SDS011;45733;52.668;6.860;2023-06-22T08:58:19;0.30;;;0.30;;
59856;SDS011;45733;52.668;6.860;2023-06-22T09:00:46;0.30;;;0.30;;
59856;SDS011;45733;52.668;6.860;2023-06-22T09:03:12;0.30;;;0.30;;
59856;SDS011;45733;52.668;6.860;2023-06-22T09:05:38;0.30;;;0.30;;
59856;SDS011;45733;52.668;6.860;2023-06-22T09:08:04;0.40;;;0.40;;
59856;SDS011;45733;52.668;6.860;2023-06-22T09:10:30;0.30;;;0.30;;
59856;SDS011;45733;52.668;6.860;2023-06-22T09:12:56;0.30;;;0.30;;
59856;SDS011;45733;52.668;6.860;2023-06-22T09:15:22;0.20;;;0.20;;
59856;SDS011;45733;52.668;6.860;2023-06-22T09:17:48;0.30;;;0.30;;
59856;SDS011;45733;52.668;6.860;2023-06-22T09:20:14;1.33;;;0.60;;
59856;SDS011;45733;52.668;6.860;2023-06-22T09:22:40;0.30;;;0.30;;
59856;SDS011;45733;52.668;6.860;2023-06-22T09:25:06;0.35;;;0.35;;
59856;SDS011;45733;52.668;6.860;2023-06-22T09:27:32;0.30;;;0.30;;
59856;SDS011;45733;52.668;6.860;2023-06-22T09:29:58;0.30;;;0.30;;
59856;SDS011;45733;52.668;6.860;2023-06-22T09:32:24;0.30;;;0.30;;
59856;SDS011;45733;52.668;6.860;2023-06-22T09:34:50;0.30;;;0.30;;
59856;SDS011;45733;52.668;6.860;2023-06-22T09:37:16;0.30;;;0.30;;
59856;SDS011;45733;52.668;6.860;2023-06-22T09:39:42;0.40;;;0.40;;
59856;SDS011;45733;52.668;6.860;2023-06-22T09:42:07;0.30;;;0.30;;
59856;SDS011;45733;52.668;6.860;2023-06-22T09:44:33;0.20;;;0.20;;
59856;SDS011;45733;52.668;6.860;2023-06-22T09:46:59;0.38;;;0.38;;
59856;SDS011;45733;52.668;6.860;2023-06-22T09:49:25;0.30;;;0.30;;
59856;SDS011;45733;52.668;6.860;2023-06-22T09:51:51;0.30;;;0.30;;
59856;SDS011;45733;52.668;6.860;2023-06-22T09:54:17;0.20;;;0.20;;
59856;SDS011;45733;52.668;6.860;2023-06-22T09:56:43;0.30;;;0.30;;
59856;SDS011;45733;52.668;6.860;2023-06-22T09:59:08;0.22;;;0.22;;
59856;SDS011;45733;52.668;6.860;2023-06-22T10:01:34;0.40;;;0.40;;
59856;SDS011;45733;52.668;6.860;2023-06-22T10:04:00;0.30;;;0.30;;
59856;SDS011;45733;52.668;6.860;2023-06-22T10:06:27;0.40;;;0.40;;
59856;SDS011;45733;52.668;6.860;2023-06-22T10:08:53;0.25;;;0.25;;
59856;SDS011;45733;52.668;6.860;2023-06-22T10:11:18;0.30;;;0.30;;
59856;SDS011;45733;52.668;6.860;2023-06-22T10:13:44;0.30;;;0.30;;
59856;SDS011;45733;52.668;6.860;2023-06-22T10:16:10;0.65;;;0.65;;
59856;SDS011;45733;52.668;6.860;2023-06-22T10:18:35;0.20;;;0.20;;
59856;SDS011;45733;52.668;6.860;2023-06-22T10:21:01;0.20;;;0.20;;
59856;SDS011;45733;52.668;6.860;2023-06-22T10:23:27;0.20;;;0.20;;
59856;SDS011;45733;52.668;6.860;2023-06-22T10:25:53;0.30;;;0.30;;
59856;SDS011;45733;52.668;6.860;2023-06-22T10:28:18;0.20;;;0.20;;
59856;SDS011;45733;52.668;6.860;2023-06-22T10:30:44;0.30;;;0.30;;
59856;SDS011;45733;52.668;6.860;2023-06-22T10:33:10;0.30;;;0.30;;
59856;SDS011;45733;52.668;6.860;2023-06-22T10:35:37;0.20;;;0.20;;
59856;SDS011;45733;52.668;6.860;2023-06-22T10:38:03;0.30;;;0.30;;
59856;SDS011;45733;52.668;6.860;2023-06-22T10:40:29;0.30;;;0.30;;
59856;SDS011;45733;52.668;6.860;2023-06-22T10:42:54;0.30;;;0.30;;
59856;SDS011;45733;52.668;6.860;2023-06-22T10:45:20;0.20;;;0.20;;
59856;SDS011;45733;52.668;6.860;2023-06-22T10:47:46;0.30;;;0.30;;
59856;SDS011;45733;52.668;6.860;2023-06-22T10:50:11;0.30;;;0.30;;
59856;SDS011;45733;52.668;6.860;2023-06-22T10:52:38;0.30;;;0.30;;
59856;SDS011;45733;52.668;6.860;2023-06-22T10:55:04;0.30;;;0.30;;
59856;SDS011;45733;52.668;6.860;2023-06-22T10:57:31;0.30;;;0.30;;
59856;SDS011;45733;52.668;6.860;2023-06-22T10:59:56;0.20;;;0.20;;
59856;SDS011;45733;52.668;6.860;2023-06-22T11:02:23;0.20;;;0.20;;
59856;SDS011;45733;52.668;6.860;2023-06-22T11:04:49;0.30;;;0.30;;
59856;SDS011;45733;52.668;6.860;2023-06-22T11:07:15;0.65;;;0.30;;
59856;SDS011;45733;52.668;6.860;2023-06-22T11:09:42;0.30;;;0.30;;
59856;SDS011;45733;52.668;6.860;2023-06-22T11:12:08;0.20;;;0.20;;
59856;SDS011;45733;52.668;6.860;2023-06-22T11:14:34;0.30;;;0.30;;
59856;SDS011;45733;52.668;6.860;2023-06-22T11:17:00;0.28;;;0.28;;
59856;SDS011;45733;52.668;6.860;2023-06-22T11:19:25;0.30;;;0.30;;
59856;SDS011;45733;52.668;6.860;2023-06-22T11:21:51;0.30;;;0.30;;
59856;SDS011;45733;52.668;6.860;2023-06-22T11:24:17;0.28;;;0.28;;
59856;SDS011;45733;52.668;6.860;2023-06-22T11:26:42;0.20;;;0.20;;
59856;SDS011;45733;52.668;6.860;2023-06-22T11:29:08;0.25;;;0.25;;
59856;SDS011;45733;52.668;6.860;2023-06-22T11:31:34;0.30;;;0.30;;
59856;SDS011;45733;52.668;6.860;2023-06-22T11:34:00;0.30;;;0.30;;
59856;SDS011;45733;52.668;6.860;2023-06-22T11:36:26;0.30;;;0.30;;
59856;SDS011;45733;52.668;6.860;2023-06-22T11:38:52;0.30;;;0.30;;
59856;SDS011;45733;52.668;6.860;2023-06-22T11:41:18;0.30;;;0.30;;
59856;SDS011;45733;52.668;6.860;2023-06-22T11:43:44;0.30;;;0.30;;
59856;SDS011;45733;52.668;6.860;2023-06-22T11:46:10;0.30;;;0.30;;
59856;SDS011;45733;52.668;6.860;2023-06-22T11:48:35;0.30;;;0.30;;
59856;SDS011;45733;52.668;6.860;2023-06-22T11:51:02;0.20;;;0.20;;
59856;SDS011;45733;52.668;6.860;2023-06-22T11:53:28;0.30;;;0.30;;
59856;SDS011;45733;52.668;6.860;2023-06-22T11:55:54;0.20;;;0.20;;
59856;SDS011;45733;52.668;6.860;2023-06-22T11:58:20;0.30;;;0.30;;
59856;SDS011;45733;52.668;6.860;2023-06-22T12:00:46;0.30;;;0.30;;
59856;SDS011;45733;52.668;6.860;2023-06-22T12:03:11;0.30;;;0.30;;
59856;SDS011;45733;52.668;6.860;2023-06-22T12:05:38;0.30;;;0.30;;
59856;SDS011;45733;52.668;6.860;2023-06-22T12:08:03;0.30;;;0.30;;
59856;SDS011;45733;52.668;6.860;2023-06-22T12:10:29;0.30;;;0.30;;
59856;SDS011;45733;52.668;6.860;2023-06-22T12:12:55;0.30;;;0.30;;
59856;SDS011;45733;52.668;6.860;2023-06-22T12:15:22;0.40;;;0.40;;
59856;SDS011;45733;52.668;6.860;2023-06-22T12:17:48;0.30;;;0.30;;
59856;SDS011;45733;52.668;6.860;2023-06-22T12:20:14;0.30;;;0.30;;
59856;SDS011;45733;52.668;6.860;2023-06-22T12:22:40;0.30;;;0.30;;
59856;SDS011;45733;52.668;6.860;2023-06-22T12:25:07;0.30;;;0.30;;
59856;SDS011;45733;52.668;6.860;2023-06-22T12:27:33;0.30;;;0.30;;
59856;SDS011;45733;52.668;6.860;2023-06-22T12:29:59;0.30;;;0.30;;
59856;SDS011;45733;52.668;6.860;2023-06-22T12:32:25;0.30;;;0.30;;
59856;SDS011;45733;52.668;6.860;2023-06-22T12:34:51;0.30;;;0.30;;
59856;SDS011;45733;52.668;6.860;2023-06-22T12:40:08;0.50;;;0.50;;
59856;SDS011;45733;52.668;6.860;2023-06-22T12:42:34;0.30;;;0.30;;
59856;SDS011;45733;52.668;6.860;2023-06-22T12:45:00;0.30;;;0.30;;
59856;SDS011;45733;52.668;6.860;2023-06-22T12:47:25;0.22;;;0.22;;
59856;SDS011;45733;52.668;6.860;2023-06-22T12:49:51;0.30;;;0.30;;
59856;SDS011;45733;52.668;6.860;2023-06-22T12:52:17;0.30;;;0.30;;
59856;SDS011;45733;52.668;6.860;2023-06-22T12:54:42;0.30;;;0.30;;
59856;SDS011;45733;52.668;6.860;2023-06-22T12:57:08;0.30;;;0.30;;
59856;SDS011;45733;52.668;6.860;2023-06-22T12:59:33;0.30;;;0.30;;
59856;SDS011;45733;52.668;6.860;2023-06-22T13:01:59;0.30;;;0.30;;
59856;SDS011;45733;52.668;6.860;2023-06-22T13:04:25;0.30;;;0.30;;
59856;SDS011;45733;52.668;6.860;2023-06-22T13:06:50;0.30;;;0.30;;
59856;SDS011;45733;52.668;6.860;2023-06-22T13:09:17;0.30;;;0.30;;
59856;SDS011;45733;52.668;6.860;2023-06-22T13:11:44;0.45;;;0.45;;
59856;SDS011;45733;52.668;6.860;2023-06-22T13:14:09;0.30;;;0.30;;
59856;SDS011;45733;52.668;6.860;2023-06-22T13:16:35;0.30;;;0.30;;
59856;SDS011;45733;52.668;6.860;2023-06-22T13:19:01;0.30;;;0.30;;
59856;SDS011;45733;52.668;6.860;2023-06-22T13:21:26;0.30;;;0.30;;
59856;SDS011;45733;52.668;6.860;2023-06-22T13:23:52;0.20;;;0.20;;
59856;SDS011;45733;52.668;6.860;2023-06-22T13:26:18;0.30;;;0.30;;
59856;SDS011;45733;52.668;6.860;2023-06-22T13:28:43;0.30;;;0.30;;
59856;SDS011;45733;52.668;6.860;2023-06-22T13:31:09;0.30;;;0.30;;
59856;SDS011;45733;52.668;6.860;2023-06-22T13:33:34;0.40;;;0.40;;
59856;SDS011;45733;52.668;6.860;2023-06-22T13:36:00;0.30;;;0.30;;
59856;SDS011;45733;52.668;6.860;2023-06-22T13:38:28;0.30;;;0.30;;
59856;SDS011;45733;52.668;6.860;2023-06-22T13:40:54;0.38;;;0.38;;
59856;SDS011;45733;52.668;6.860;2023-06-22T13:43:22;0.30;;;0.30;;
59856;SDS011;45733;52.668;6.860;2023-06-22T13:45:48;0.22;;;0.22;;
59856;SDS011;45733;52.668;6.860;2023-06-22T13:48:14;0.30;;;0.30;;
59856;SDS011;45733;52.668;6.860;2023-06-22T13:50:39;0.30;;;0.30;;
59856;SDS011;45733;52.668;6.860;2023-06-22T13:53:05;0.30;;;0.30;;
59856;SDS011;45733;52.668;6.860;2023-06-22T13:55:31;0.30;;;0.30;;
59856;SDS011;45733;52.668;6.860;2023-06-22T13:57:56;0.30;;;0.30;;
59856;SDS011;45733;52.668;6.860;2023-06-22T14:00:22;0.40;;;0.40;;
59856;SDS011;45733;52.668;6.860;2023-06-22T14:02:48;1.15;;;1.15;;
59856;SDS011;45733;52.668;6.860;2023-06-22T14:05:14;0.30;;;0.30;;
59856;SDS011;45733;52.668;6.860;2023-06-22T14:07:39;0.30;;;0.30;;
59856;SDS011;45733;52.668;6.860;2023-06-22T14:10:05;0.80;;;0.80;;
59856;SDS011;45733;52.668;6.860;2023-06-22T14:12:31;0.30;;;0.30;;
59856;SDS011;45733;52.668;6.860;2023-06-22T14:14:56;0.52;;;0.52;;
59856;SDS011;45733;52.668;6.860;2023-06-22T14:17:22;1.40;;;1.35;;
59856;SDS011;45733;52.668;6.860;2023-06-22T14:19:51;0.68;;;0.68;;
59856;SDS011;45733;52.668;6.860;2023-06-22T14:22:21;1.13;;;1.13;;
59856;SDS011;45733;52.668;6.860;2023-06-22T14:24:47;0.30;;;0.30;;
59856;SDS011;45733;52.668;6.860;2023-06-22T14:27:13;1.60;;;1.50;;
59856;SDS011;45733;52.668;6.860;2023-06-22T14:29:39;0.30;;;0.30;;
59856;SDS011;45733;52.668;6.860;2023-06-22T14:32:05;0.80;;;0.80;;
59856;SDS011;45733;52.668;6.860;2023-06-22T14:34:31;1.17;;;1.17;;
59856;SDS011;45733;52.668;6.860;2023-06-22T14:36:58;0.43;;;0.43;;
59856;SDS011;45733;52.668;6.860;2023-06-22T14:39:23;1.33;;;1.33;;
59856;SDS011;45733;52.668;6.860;2023-06-22T14:41:49;0.35;;;0.35;;
59856;SDS011;45733;52.668;6.860;2023-06-22T14:44:15;1.30;;;1.30;;
59856;SDS011;45733;52.668;6.860;2023-06-22T14:46:41;0.30;;;0.30;;
59856;SDS011;45733;52.668;6.860;2023-06-22T14:49:06;1.13;;;1.13;;
59856;SDS011;45733;52.668;6.860;2023-06-22T14:51:32;1.25;;;1.25;;
59856;SDS011;45733;52.668;6.860;2023-06-22T14:53:57;1.05;;;1.05;;
59856;SDS011;45733;52.668;6.860;2023-06-22T14:56:23;1.05;;;1.05;;